LiveATC.Net - Listen to live air traffic control over the Internet!


ICAO: KPGV  IATA: PGV   Airport: Pitt-Greenville Airport
City: Greenville   State/Province: North Carolina
Country: United States   Continent: North America
KPGV METAR Weather: KPGV 260615Z AUTO 17008KT 10SM SCT046 SCT050 SCT060 18/16 A3015 RMK AO2
KPGV Flight Activity (FlightAware)
KPGV Airport Info   (iFlightPlanner)
KPGV VFR Sectional Chart   (iFlightPlanner) 
KPGV IFR Low Chart   (iFlightPlanner) 

KPGV CTAF
Feed Status: UP   Listeners: 0
Listen in your browser - HTML5 player (in browser, HTML5)
Click here to listen with your own player (launches your MP3 player)
Archive Access: KPGV CTAF
FacilityFrequency
Pitt-Greenville CTAF/UNICOM122.800

NOTICE

Unauthorized use prohibited. See LiveATC.net Terms of Service


Airport/ARTCC Code
Frequency Search
(e.g., 124.400, 128.75)
Site-wide search
 


Browse Feeds
Top 50 Feeds
Coverage Map
Bad Weather Areas

LiveATC FAQ
Offer LiveATC feed
Contact LiveATC.net
Press Inquiries

LiveATC on iPhone
LiveATC on Android

Windows Phone
Windows 8/10

LiveATC Mobile
(Mobile browser)

ATC Audio Archives
Interesting Recordings

LiveATC Forums


Home Page
About LiveATC.net
Make a Donation
Terms of Use
Privacy Policy

Canadian Air Freqs

AIRMETs/SIGMETs

FAA Airport Status
Nat'l Airspace Status
Arrival Demand Charts


Server Software By:
Icecast.org
Liquidsoap